createdAt,value
2018-12-06T00:00:03.574Z,-3.60
2018-12-06T00:02:33.944Z,-3.60
2018-12-06T00:05:18.912Z,-3.60
2018-12-06T00:10:24.076Z,-3.60
2018-12-06T00:12:54.184Z,-3.50
2018-12-06T00:15:28.555Z,-3.50
2018-12-06T00:17:58.736Z,-3.50
2018-12-06T00:20:29.102Z,-3.50
2018-12-06T00:22:59.423Z,-3.40
2018-12-06T00:25:29.666Z,-3.30
2018-12-06T00:28:00.044Z,-3.30
2018-12-06T00:30:37.792Z,-3.30
2018-12-06T00:33:08.194Z,-3.30
2018-12-06T00:35:38.380Z,-3.40
2018-12-06T00:38:08.683Z,-3.30
2018-12-06T00:40:39.068Z,-3.20
2018-12-06T00:43:09.293Z,-3.20
2018-12-06T00:45:39.558Z,-3.10
2018-12-06T00:48:09.728Z,-3.00
2018-12-06T00:50:39.948Z,-2.90
2018-12-06T00:53:10.136Z,-2.80
2018-12-06T00:55:40.407Z,-2.80
2018-12-06T00:58:10.743Z,-2.80
2018-12-06T01:00:40.984Z,-2.70
2018-12-06T01:03:11.371Z,-2.60
2018-12-06T01:05:41.551Z,-2.60
2018-12-06T01:08:11.736Z,-2.60
2018-12-06T01:10:42.072Z,-2.60
2018-12-06T01:15:42.060Z,-2.50
2018-12-06T01:18:12.231Z,-2.50
2018-12-06T01:23:12.447Z,-2.60
2018-12-06T01:25:42.691Z,-2.70
2018-12-06T01:28:13.064Z,-2.70
2018-12-06T01:30:43.300Z,-2.70
2018-12-06T01:33:13.429Z,-2.80
2018-12-06T01:35:43.730Z,-2.80
2018-12-06T01:38:13.891Z,-2.80
2018-12-06T01:40:44.043Z,-2.80
2018-12-06T01:43:14.299Z,-2.90
2018-12-06T01:45:44.600Z,-2.90
2018-12-06T01:48:14.951Z,-3.00
2018-12-06T01:50:45.272Z,-2.90
2018-12-06T01:53:15.968Z,-2.70
2018-12-06T01:55:46.295Z,-2.70
2018-12-06T01:58:16.404Z,-2.60
2018-12-06T02:00:46.652Z,-2.50
2018-12-06T02:03:17.020Z,-2.60
2018-12-06T02:05:47.388Z,-2.70
2018-12-06T02:10:47.346Z,-3.00
2018-12-06T02:13:17.884Z,-3.10
2018-12-06T02:15:48.142Z,-3.20
2018-12-06T02:20:48.545Z,-3.20
2018-12-06T02:23:19.143Z,-3.20
2018-12-06T02:25:49.410Z,-3.20
2018-12-06T02:28:19.930Z,-3.30
2018-12-06T02:30:50.428Z,-3.30
2018-12-06T02:33:20.874Z,-3.30
2018-12-06T02:35:51.379Z,-3.40
2018-12-06T02:38:21.827Z,-3.30
2018-12-06T02:40:52.208Z,-3.30
2018-12-06T02:43:22.596Z,-3.30
2018-12-06T02:45:53.061Z,-3.20
2018-12-06T02:48:23.499Z,-3.10
2018-12-06T02:53:23.639Z,-3.00
2018-12-06T02:55:54.076Z,-3.00
2018-12-06T02:58:24.560Z,-3.00
2018-12-06T03:00:54.999Z,-2.90
2018-12-06T03:03:25.359Z,-2.90
2018-12-06T03:05:55.648Z,-2.80
2018-12-06T03:10:55.659Z,-2.80
2018-12-06T03:13:26.143Z,-2.80
2018-12-06T03:15:56.383Z,-2.80
2018-12-06T03:18:26.780Z,-2.80
2018-12-06T03:20:57.313Z,-2.80
2018-12-06T03:23:27.924Z,-2.80
2018-12-06T03:25:58.351Z,-2.90
2018-12-06T03:28:28.684Z,-2.90
2018-12-06T03:30:58.944Z,-2.90
2018-12-06T03:33:29.309Z,-2.80
2018-12-06T03:40:58.988Z,-2.80
2018-12-06T03:43:29.508Z,-2.80
2018-12-06T03:45:59.992Z,-2.70
2018-12-06T03:48:30.304Z,-2.80
2018-12-06T03:51:00.821Z,-2.80
2018-12-06T03:53:31.289Z,-2.80
2018-12-06T03:56:01.796Z,-2.80
2018-12-06T03:58:32.049Z,-2.70
2018-12-06T04:03:32.207Z,-2.70
2018-12-06T04:06:02.860Z,-2.70
2018-12-06T04:08:33.340Z,-2.70
2018-12-06T04:13:33.347Z,-2.60
2018-12-06T04:16:03.860Z,-2.70
2018-12-06T04:18:34.256Z,-2.70
2018-12-06T04:21:04.668Z,-2.70
2018-12-06T04:23:35.072Z,-2.70
2018-12-06T04:26:05.828Z,-2.60
2018-12-06T04:28:36.269Z,-2.60
2018-12-06T04:31:06.692Z,-2.60
2018-12-06T04:33:36.984Z,-2.60
2018-12-06T04:38:37.076Z,-2.60
2018-12-06T04:41:07.455Z,-2.60
2018-12-06T04:43:37.747Z,-2.60
2018-12-06T04:46:08.631Z,-2.70
2018-12-06T04:48:38.964Z,-2.70
2018-12-06T04:51:09.480Z,-2.70
2018-12-06T04:53:39.738Z,-2.60
2018-12-06T04:56:10.023Z,-2.70
2018-12-06T04:58:40.376Z,-2.60
2018-12-06T05:01:10.843Z,-2.60
2018-12-06T05:03:41.051Z,-2.60
2018-12-06T05:06:11.570Z,-2.60
2018-12-06T05:08:41.904Z,-2.70
2018-12-06T05:11:12.302Z,-2.70
2018-12-06T05:13:42.755Z,-2.70
2018-12-06T05:16:13.102Z,-2.80
2018-12-06T05:18:43.536Z,-2.90
2018-12-06T05:21:14.019Z,-2.90
2018-12-06T05:23:44.462Z,-2.90
2018-12-06T05:26:14.796Z,-2.90
2018-12-06T05:28:45.330Z,-3.00
2018-12-06T05:31:15.713Z,-3.00
2018-12-06T05:33:46.058Z,-2.90
2018-12-06T05:36:16.567Z,-2.90
2018-12-06T05:38:47.150Z,-2.80
2018-12-06T05:41:17.470Z,-2.80
2018-12-06T05:43:48.002Z,-2.80
2018-12-06T05:48:48.006Z,-2.80
2018-12-06T05:51:18.418Z,-2.90
2018-12-06T05:53:48.627Z,-2.90
2018-12-06T05:56:18.930Z,-2.90
2018-12-06T06:01:19.143Z,-3.00
2018-12-06T06:06:19.266Z,-3.10
2018-12-06T06:08:49.830Z,-3.10
2018-12-06T06:13:50.047Z,-3.20
2018-12-06T06:18:50.251Z,-3.20
2018-12-06T06:21:20.594Z,-3.20
2018-12-06T06:23:50.840Z,-3.10
2018-12-06T06:26:21.151Z,-3.10
2018-12-06T06:28:51.679Z,-3.10
2018-12-06T06:31:22.003Z,-3.10
2018-12-06T06:33:52.499Z,-3.10
2018-12-06T06:36:22.950Z,-3.10
2018-12-06T06:38:53.278Z,-3.10
2018-12-06T06:41:23.595Z,-3.20
2018-12-06T06:43:54.006Z,-3.20
2018-12-06T06:46:24.206Z,-3.10
2018-12-06T06:48:54.647Z,-3.20
2018-12-06T06:51:25.122Z,-3.20
2018-12-06T06:53:55.398Z,-3.20
2018-12-06T06:56:25.691Z,-3.10
2018-12-06T06:58:56.083Z,-3.10
2018-12-06T07:01:26.326Z,-3.10
2018-12-06T07:03:56.903Z,-3.00
2018-12-06T07:06:27.443Z,-2.90
2018-12-06T07:08:57.997Z,-2.80
2018-12-06T07:11:28.398Z,-2.70
2018-12-06T07:13:58.699Z,-2.60
2018-12-06T07:16:29.166Z,-2.60
2018-12-06T07:18:59.477Z,-2.50
2018-12-06T07:21:29.836Z,-2.50
2018-12-06T07:24:00.106Z,-2.50
2018-12-06T07:26:30.852Z,-2.40
2018-12-06T07:29:01.198Z,-2.40
2018-12-06T07:34:01.094Z,-2.20
2018-12-06T07:36:31.458Z,-2.20
2018-12-06T07:39:01.846Z,-2.10
2018-12-06T07:41:32.186Z,-2.10
2018-12-06T07:44:02.694Z,-2.10
2018-12-06T07:46:33.042Z,-2.00
2018-12-06T07:49:03.252Z,-2.00
2018-12-06T07:51:33.628Z,-1.90
2018-12-06T07:54:03.899Z,-1.80
2018-12-06T07:56:34.275Z,-1.80
2018-12-06T07:59:04.622Z,-1.70
2018-12-06T08:01:34.894Z,-1.60
2018-12-06T08:04:05.195Z,-1.50
2018-12-06T08:06:35.697Z,-1.50
2018-12-06T08:09:08.707Z,-1.40
2018-12-06T08:11:38.978Z,-1.40
2018-12-06T08:16:38.986Z,-1.30
2018-12-06T08:19:09.310Z,-1.20
2018-12-06T08:21:39.919Z,-1.20
2018-12-06T08:24:10.138Z,-1.10
2018-12-06T08:26:40.477Z,-1.10
2018-12-06T08:29:10.710Z,-1.10
2018-12-06T08:34:10.692Z,-0.90
2018-12-06T08:36:40.971Z,-0.90
2018-12-06T08:39:11.545Z,-0.80
2018-12-06T08:41:42.014Z,-0.80
2018-12-06T08:44:12.295Z,-0.70
2018-12-06T08:46:42.721Z,-0.60
2018-12-06T08:49:13.298Z,-0.60
2018-12-06T08:51:43.862Z,-0.70
2018-12-06T08:54:14.966Z,-0.60
2018-12-06T08:56:45.675Z,-0.60
2018-12-06T08:59:16.644Z,-0.60
2018-12-06T09:01:47.215Z,-0.50
2018-12-06T09:04:17.811Z,-0.40
2018-12-06T09:06:48.290Z,-0.30
2018-12-06T09:09:18.893Z,-0.30
2018-12-06T09:11:50.351Z,-0.20
2018-12-06T09:16:50.588Z,-0.10
2018-12-06T09:19:21.987Z,0.00
2018-12-06T09:21:53.610Z,0.20
2018-12-06T09:24:24.170Z,0.30
2018-12-06T09:26:58.681Z,0.40
2018-12-06T09:29:25.102Z,0.40
2018-12-06T09:31:55.682Z,0.30
2018-12-06T09:34:26.475Z,0.30
2018-12-06T09:36:56.953Z,0.30
2018-12-06T09:39:27.335Z,0.30
2018-12-06T09:41:57.926Z,0.30
2018-12-06T09:44:29.211Z,0.40
2018-12-06T09:46:59.790Z,0.50
2018-12-06T09:51:59.926Z,0.50
2018-12-06T09:54:30.314Z,0.50
2018-12-06T09:57:00.770Z,0.50
2018-12-06T09:59:31.442Z,0.50
2018-12-06T10:02:01.922Z,0.50
2018-12-06T10:04:32.402Z,0.50
2018-12-06T10:07:02.994Z,0.50
2018-12-06T10:12:03.130Z,0.60
2018-12-06T10:14:33.623Z,0.60
2018-12-06T10:17:04.221Z,0.70
2018-12-06T10:19:34.654Z,0.80
2018-12-06T10:22:05.499Z,0.80
2018-12-06T10:24:36.027Z,0.90
2018-12-06T10:27:06.622Z,0.90
2018-12-06T10:32:07.615Z,1.00
2018-12-06T10:34:38.342Z,1.00
2018-12-06T10:37:08.822Z,1.00
2018-12-06T10:39:39.298Z,1.10
2018-12-06T10:42:09.742Z,1.20
2018-12-06T10:44:40.253Z,1.20
2018-12-06T10:47:10.735Z,1.20
2018-12-06T10:49:41.422Z,1.10
2018-12-06T10:52:11.959Z,1.30
2018-12-06T10:54:42.423Z,1.30
2018-12-06T10:57:12.958Z,1.40
2018-12-06T10:59:43.430Z,1.50
2018-12-06T11:02:18.798Z,1.50
2018-12-06T11:04:49.203Z,1.60
2018-12-06T11:07:19.674Z,1.70
2018-12-06T11:09:50.046Z,1.80
2018-12-06T11:12:20.634Z,1.80
2018-12-06T11:14:51.224Z,1.90
2018-12-06T11:17:21.683Z,1.90
2018-12-06T11:19:52.142Z,2.00
2018-12-06T11:22:23.254Z,2.00
2018-12-06T11:24:54.539Z,2.00
2018-12-06T11:27:25.038Z,1.90
2018-12-06T11:29:55.407Z,1.90
2018-12-06T11:32:25.982Z,1.90
2018-12-06T11:34:56.464Z,1.90
2018-12-06T11:37:27.035Z,2.00
2018-12-06T11:39:58.234Z,2.00
2018-12-06T11:42:29.510Z,2.10
2018-12-06T11:44:59.906Z,2.10
2018-12-06T11:47:30.499Z,2.10
2018-12-06T11:52:30.533Z,2.10
2018-12-06T11:55:00.887Z,2.20
2018-12-06T11:57:31.250Z,2.30
2018-12-06T12:00:01.732Z,2.30
2018-12-06T12:02:32.219Z,2.30
2018-12-06T12:05:02.722Z,2.40
2018-12-06T12:07:34.002Z,2.40
2018-12-06T12:10:04.483Z,2.40
2018-12-06T12:12:35.050Z,2.40
2018-12-06T12:15:06.597Z,2.40
2018-12-06T12:17:37.034Z,2.40
2018-12-06T12:20:08.008Z,2.30
2018-12-06T12:22:38.510Z,2.30
2018-12-06T12:25:08.998Z,2.30
2018-12-06T12:27:39.578Z,2.30
2018-12-06T12:30:10.158Z,2.30
2018-12-06T12:32:40.626Z,2.30
2018-12-06T12:35:11.001Z,2.30
2018-12-06T12:37:41.583Z,2.40
2018-12-06T12:40:13.090Z,2.40
2018-12-06T12:42:43.551Z,2.40
2018-12-06T12:45:14.026Z,2.40
2018-12-06T12:47:44.614Z,2.40
2018-12-06T12:50:14.995Z,2.40
2018-12-06T12:52:45.394Z,2.40
2018-12-06T12:55:15.675Z,2.50
2018-12-06T12:57:46.906Z,2.50
2018-12-06T13:00:17.286Z,2.50
2018-12-06T13:02:47.778Z,2.40
2018-12-06T13:05:18.268Z,2.40
2018-12-06T13:07:49.662Z,2.40
2018-12-06T13:10:20.043Z,2.40
2018-12-06T13:12:50.459Z,2.30
2018-12-06T13:15:21.019Z,2.30
2018-12-06T13:17:51.434Z,2.40
2018-12-06T13:20:21.943Z,2.40
2018-12-06T13:22:52.738Z,2.50
2018-12-06T13:25:23.007Z,2.50
2018-12-06T13:27:53.966Z,2.50
2018-12-06T13:30:24.366Z,2.50
2018-12-06T13:32:54.930Z,2.40
2018-12-06T13:35:25.416Z,2.50
2018-12-06T13:37:55.894Z,2.50
2018-12-06T13:40:26.257Z,2.40
2018-12-06T13:42:56.691Z,2.40
2018-12-06T13:45:27.034Z,2.50
2018-12-06T13:47:57.606Z,2.50
2018-12-06T13:50:28.090Z,2.50
2018-12-06T13:52:59.624Z,2.60
2018-12-06T13:55:29.966Z,2.50
2018-12-06T13:58:00.592Z,2.60
2018-12-06T14:00:31.218Z,2.60
2018-12-06T14:03:01.725Z,2.50
2018-12-06T14:05:32.295Z,2.60
2018-12-06T14:08:02.741Z,2.60
2018-12-06T14:10:33.070Z,2.60
2018-12-06T14:13:03.630Z,2.60
2018-12-06T14:15:34.909Z,2.60
2018-12-06T14:18:05.480Z,2.70
2018-12-06T14:20:36.082Z,2.70
2018-12-06T14:23:06.818Z,2.60
2018-12-06T14:25:37.230Z,2.60
2018-12-06T14:28:07.670Z,2.60
2018-12-06T14:30:38.383Z,2.60
2018-12-06T14:33:10.153Z,2.60
2018-12-06T14:35:40.559Z,2.60
2018-12-06T14:38:11.045Z,2.50
2018-12-06T14:40:41.523Z,2.50
2018-12-06T14:43:12.147Z,2.50
2018-12-06T14:45:42.630Z,2.50
2018-12-06T14:48:13.186Z,2.50
2018-12-06T14:50:43.537Z,2.50
2018-12-06T14:53:14.078Z,2.50
2018-12-06T14:55:44.513Z,2.50
2018-12-06T14:58:15.386Z,2.50
2018-12-06T15:00:45.841Z,2.50
2018-12-06T15:03:16.247Z,2.50
2018-12-06T15:08:16.775Z,2.50
2018-12-06T15:10:47.138Z,2.50
2018-12-06T15:13:17.834Z,2.50
2018-12-06T15:18:17.871Z,2.50
2018-12-06T15:20:48.358Z,2.60
2018-12-06T15:23:18.638Z,2.60
2018-12-06T15:25:48.878Z,2.60
2018-12-06T15:28:19.007Z,2.60
2018-12-06T15:30:49.343Z,2.60
2018-12-06T15:33:19.791Z,2.60
2018-12-06T15:35:50.159Z,2.60
2018-12-06T15:40:50.503Z,2.60
2018-12-06T15:43:20.918Z,2.60
2018-12-06T15:45:51.182Z,2.50
2018-12-06T15:48:21.403Z,2.50
2018-12-06T15:50:51.422Z,2.40
2018-12-06T15:53:21.762Z,2.40
2018-12-06T15:55:52.147Z,2.40
2018-12-06T15:58:22.422Z,2.40
2018-12-06T16:00:52.659Z,2.40
2018-12-06T16:05:52.624Z,2.30
2018-12-06T16:08:22.927Z,2.30
2018-12-06T16:10:53.168Z,2.30
2018-12-06T16:13:23.439Z,2.30
2018-12-06T16:15:54.020Z,2.30
2018-12-06T16:18:24.262Z,2.30
2018-12-06T16:20:54.875Z,2.40
2018-12-06T16:23:25.260Z,2.40
2018-12-06T16:25:55.559Z,2.30
2018-12-06T16:28:25.886Z,2.30
2018-12-06T16:30:56.374Z,2.30
2018-12-06T16:33:26.675Z,2.30
2018-12-06T16:38:26.639Z,2.30
2018-12-06T16:40:56.850Z,2.40
2018-12-06T16:43:27.107Z,2.40
2018-12-06T16:45:57.399Z,2.40
2018-12-06T16:48:27.925Z,2.40
2018-12-06T16:50:58.568Z,2.40
2018-12-06T16:55:59.765Z,2.40
2018-12-06T16:58:30.613Z,2.40
2018-12-06T17:01:01.354Z,2.40
2018-12-06T17:03:32.093Z,2.40
2018-12-06T17:06:02.783Z,2.50
2018-12-06T17:08:33.664Z,2.60
2018-12-06T17:11:04.244Z,2.70
2018-12-06T17:13:34.944Z,2.70
2018-12-06T17:16:05.540Z,2.70
2018-12-06T17:18:35.831Z,2.70
2018-12-06T17:21:06.525Z,2.70
2018-12-06T17:23:37.565Z,2.70
2018-12-06T17:26:07.930Z,2.70
2018-12-06T17:28:40.276Z,2.60
2018-12-06T17:31:11.035Z,2.60
2018-12-06T17:33:41.311Z,2.50
2018-12-06T17:36:11.555Z,2.50
2018-12-06T17:38:42.231Z,2.50
2018-12-06T17:41:12.993Z,2.40
2018-12-06T17:43:43.395Z,2.40
2018-12-06T17:46:13.735Z,2.40
2018-12-06T17:48:44.320Z,2.40
2018-12-06T17:51:15.088Z,2.40
2018-12-06T17:53:52.022Z,2.40
2018-12-06T17:56:16.089Z,2.40
2018-12-06T17:58:46.808Z,2.50
2018-12-06T18:01:17.566Z,2.50
2018-12-06T18:03:48.089Z,2.60
2018-12-06T18:06:18.438Z,2.60
2018-12-06T18:08:48.714Z,2.60
2018-12-06T18:11:19.061Z,2.60
2018-12-06T18:13:49.396Z,2.60
2018-12-06T18:16:19.942Z,2.60
2018-12-06T18:21:19.807Z,2.60
2018-12-06T18:23:50.195Z,2.60
2018-12-06T18:26:20.482Z,2.60
2018-12-06T18:28:50.794Z,2.70
2018-12-06T18:31:21.007Z,2.60
2018-12-06T18:33:51.407Z,2.70
2018-12-06T18:36:21.779Z,2.70
2018-12-06T18:38:52.026Z,2.50
2018-12-06T18:41:22.537Z,2.50
2018-12-06T18:43:52.706Z,2.50
2018-12-06T18:46:22.963Z,2.50
2018-12-06T18:48:53.244Z,2.50
2018-12-06T18:51:23.562Z,2.50
2018-12-06T18:53:53.954Z,2.50
2018-12-06T18:56:24.238Z,2.50
2018-12-06T18:58:54.630Z,2.50
2018-12-06T19:01:24.782Z,2.40
2018-12-06T19:03:55.103Z,2.40
2018-12-06T19:06:25.470Z,2.50
2018-12-06T19:08:55.795Z,2.50
2018-12-06T19:11:26.016Z,2.50
2018-12-06T19:13:56.318Z,2.50
2018-12-06T19:16:26.627Z,2.40
2018-12-06T19:18:56.943Z,2.40
2018-12-06T19:21:27.176Z,2.30
2018-12-06T19:23:57.474Z,2.30
2018-12-06T19:26:27.755Z,2.20
2018-12-06T19:28:58.022Z,2.20
2018-12-06T19:31:28.300Z,2.20
2018-12-06T19:33:58.675Z,2.10
2018-12-06T19:36:29.053Z,2.10
2018-12-06T19:38:59.579Z,2.10
2018-12-06T19:41:29.801Z,2.00
2018-12-06T19:46:29.834Z,2.00
2018-12-06T19:49:00.045Z,1.90
2018-12-06T19:51:30.450Z,2.00
2018-12-06T19:54:00.801Z,2.00
2018-12-06T19:56:30.927Z,2.00
2018-12-06T19:59:01.299Z,2.00
2018-12-06T20:01:31.714Z,2.00
2018-12-06T20:04:02.082Z,1.90
2018-12-06T20:09:01.895Z,1.90
2018-12-06T20:11:32.387Z,1.90
2018-12-06T20:14:02.614Z,1.90
2018-12-06T20:16:32.850Z,1.90
2018-12-06T20:19:03.154Z,1.90
2018-12-06T20:21:33.444Z,1.90
2018-12-06T20:24:03.875Z,1.90
2018-12-06T20:26:34.687Z,1.90
2018-12-06T20:31:34.695Z,1.90
2018-12-06T20:34:05.107Z,1.90
2018-12-06T20:36:35.403Z,1.90
2018-12-06T20:39:07.177Z,1.90
2018-12-06T20:41:37.550Z,1.90
2018-12-06T20:44:07.867Z,1.90
2018-12-06T20:46:38.162Z,1.90
2018-12-06T20:49:08.563Z,2.00
2018-12-06T20:51:38.969Z,1.90
2018-12-06T20:54:09.334Z,2.00
2018-12-06T20:56:39.749Z,2.00
2018-12-06T20:59:09.950Z,2.00
2018-12-06T21:01:40.143Z,2.00
2018-12-06T21:04:10.484Z,2.00
2018-12-06T21:06:40.747Z,2.00
2018-12-06T21:09:11.174Z,1.90
2018-12-06T21:11:41.623Z,1.90
2018-12-06T21:14:11.996Z,2.00
2018-12-06T21:16:42.521Z,2.00
2018-12-06T21:19:12.778Z,2.00
2018-12-06T21:21:43.113Z,2.00
2018-12-06T21:24:13.382Z,2.10
2018-12-06T21:29:13.109Z,2.00
2018-12-06T21:31:43.453Z,2.10
2018-12-06T21:34:13.633Z,2.10
2018-12-06T21:36:43.942Z,2.10
2018-12-06T21:39:14.438Z,2.10
2018-12-06T21:41:44.680Z,2.20
2018-12-06T21:44:15.015Z,2.10
2018-12-06T21:46:45.446Z,2.10
2018-12-06T21:49:15.868Z,2.10
2018-12-06T21:51:46.206Z,2.20
2018-12-06T21:54:16.477Z,2.20
2018-12-06T21:56:47.035Z,2.20
2018-12-06T22:05:04.914Z,2.20
2018-12-06T22:07:35.222Z,2.20
2018-12-06T22:10:06.199Z,2.30
2018-12-06T22:12:36.550Z,2.30
2018-12-06T22:15:06.937Z,2.30
2018-12-06T22:17:37.324Z,2.40
2018-12-06T22:20:07.870Z,2.40
2018-12-06T22:22:38.230Z,2.40
2018-12-06T22:25:08.742Z,2.40
2018-12-06T22:27:39.030Z,2.40
2018-12-06T22:30:09.727Z,2.40
2018-12-06T22:32:40.030Z,2.50
2018-12-06T22:35:10.459Z,2.50
2018-12-06T22:37:40.753Z,2.50
2018-12-06T22:40:11.330Z,2.50
2018-12-06T22:42:41.871Z,2.40
2018-12-06T22:45:26.224Z,2.40
2018-12-06T22:47:56.610Z,2.50
2018-12-06T22:50:27.031Z,2.50
2018-12-06T22:52:57.323Z,2.50
2018-12-06T22:55:27.731Z,2.50
2018-12-06T22:57:58.370Z,2.60
2018-12-06T23:00:33.084Z,2.60
2018-12-06T23:03:03.455Z,2.60
2018-12-06T23:05:33.986Z,2.70
2018-12-06T23:08:04.258Z,2.70
2018-12-06T23:10:34.853Z,2.70
2018-12-06T23:13:05.355Z,2.70
2018-12-06T23:15:35.695Z,2.80
2018-12-06T23:18:06.191Z,2.80
2018-12-06T23:20:36.754Z,2.80
2018-12-06T23:23:07.290Z,2.80
2018-12-06T23:25:37.806Z,2.80
2018-12-06T23:28:08.126Z,2.80
2018-12-06T23:30:38.967Z,2.90
2018-12-06T23:33:09.280Z,2.90
2018-12-06T23:35:39.810Z,2.90
2018-12-06T23:38:10.318Z,2.80
2018-12-06T23:40:40.710Z,2.80
2018-12-06T23:43:11.179Z,2.90
2018-12-06T23:45:41.888Z,2.90
2018-12-06T23:48:12.439Z,2.80
2018-12-06T23:50:42.567Z,2.80
2018-12-06T23:53:12.775Z,2.80
2018-12-06T23:55:43.222Z,2.80
2018-12-06T23:58:13.558Z,2.90
